Hauptseite
METAR-TAF:

METAR-TAF

Flughäfen :

Flughafen Nausori

Suva, Fidschi

Breite: 18-03S, Länge: 178-34E, Höhe: 5 m

Beobachtung

Neuester Wetterbericht von vor 25 Minuten, um 21:00 UTC
Wind 8 kt aus Ost/Südost
Temperatur 30°C
Luftfeuchtigkeit 70%
Luftdruck 1015 hPa
Sichtweite 10 km oder mehr
Leicht bewölkt in der Höhe von 2000 ft

METAR: NFNA 152100Z 11008KT 9999 FEW020 30/24 Q1015

Zeit: 09:25 (21:25 UTC)

Prognose

Neuester Wetterbericht von vor 4 Stunden und 1 Minuten, um 17:24 UTC
Gültige Prognose vom 15 um 18 UTC bis 16 um 18 UTC
Wind 3 kt aus unterschiedlichen Richtungen
Sichtweite 10 km oder mehr
Aufgelockert bewölkt in der Höhe von 2000 ft
Aufgelockert bewölkt in der Höhe von 4500 ft

TAF: NFNA 151724Z 1518/1618 VRB03KT 9999 SCT020 SCT045

Wetterbeobachtungen und Prognosen von mehr als 4000 Flughäfen (METAR und TAF Bericht).

Die verfügbaren Stationen werden durch gelbe und rote Markierungen auf der Karte dargestellt.

Führen Sie die Maus auf sie, um den Namen der Station zu sehen.

Darauf klicken, um die Beobachtung von Wetterbeobachtungen und Prognosen zu sehen.

Um die Karte zu ändern : klicken Sie auf den grünen Tasten mit einem schwarzen Kreuz Zum Vergrößern, auf den grünen Button mit einem Gedankenstrich zu verkleinern, oder auf die grünen Pfeile für benachbarte Karten.


METAR-TAF: